Time;durP1;ratioP1;P1;durP2;ratioP2;P2;SDS_P1;SDS_P2;PMS_P1;PMS_P2;Temp;Humidity;BMP_temperature;BMP_pressure;BME280_temperature;BME280_humidity;BME280_pressure;Samples;Min_cycle;Max_cycle;Signal;HPM_P1;HPM_P2
2023/02/08 00:02:21;;;;;;;27.45;11.40;;;;;;;;;;5055600;28;20071;-75
2023/02/08 00:04:48;;;;;;;26.48;11.40;;;;;;;;;;5056259;28;20546;-75
2023/02/08 00:07:14;;;;;;;26.60;11.98;;;;;;;;;;5062639;28;20456;-74
2023/02/08 00:09:41;;;;;;;24.70;11.60;;;;;;;;;;5056843;28;20488;-75
2023/02/08 00:12:08;;;;;;;25.98;11.27;;;;;;;;;;5055718;28;20079;-75
2023/02/08 00:14:34;;;;;;;25.83;11.15;;;;;;;;;;5057852;28;20052;-77
2023/02/08 00:17:01;;;;;;;25.48;11.02;;;;;;;;;;5065927;28;20069;-74
2023/02/08 00:19:29;;;;;;;33.25;11.82;;;;;;;;;;5056228;28;20102;-75
2023/02/08 00:21:55;;;;;;;24.30;10.70;;;;;;;;;;5056044;28;20096;-74
2023/02/08 00:24:22;;;;;;;29.67;11.93;;;;;;;;;;5055172;28;20049;-76
2023/02/08 00:26:49;;;;;;;21.95;11.30;;;;;;;;;;5056259;28;20131;-76
2023/02/08 00:29:15;;;;;;;29.25;11.52;;;;;;;;;;5056464;28;20045;-77
2023/02/08 00:31:42;;;;;;;24.77;11.55;;;;;;;;;;5055791;28;20120;-77
2023/02/08 00:34:09;;;;;;;26.10;11.30;;;;;;;;;;5057774;28;20049;-77
2023/02/08 00:36:37;;;;;;;23.17;11.10;;;;;;;;;;5057040;28;20553;-77
2023/02/08 00:39:04;;;;;;;28.63;12.00;;;;;;;;;;5056850;28;20047;-75
2023/02/08 00:41:30;;;;;;;26.52;11.73;;;;;;;;;;5054984;28;20106;-77
2023/02/08 00:43:57;;;;;;;25.75;11.48;;;;;;;;;;5054067;28;20479;-76
2023/02/08 00:46:24;;;;;;;27.02;11.32;;;;;;;;;;5055035;28;20491;-74
2023/02/08 00:48:50;;;;;;;26.67;11.20;;;;;;;;;;5054213;28;20048;-75
2023/02/08 00:51:17;;;;;;;27.35;11.70;;;;;;;;;;5055360;28;20068;-76
2023/02/08 00:53:45;;;;;;;22.67;10.18;;;;;;;;;;5054323;28;20045;-75
2023/02/08 00:56:14;;;;;;;22.33;11.27;;;;;;;;;;5053947;28;20045;-74
2023/02/08 00:58:42;;;;;;;26.10;11.68;;;;;;;;;;5054250;28;20165;-76
2023/02/08 01:01:09;;;;;;;25.45;11.85;;;;;;;;;;5054668;28;20045;-76
2023/02/08 01:03:37;;;;;;;28.23;11.50;;;;;;;;;;5056264;28;20079;-76
2023/02/08 01:06:06;;;;;;;28.73;11.88;;;;;;;;;;5068299;28;20119;-76
2023/02/08 01:08:33;;;;;;;25.05;10.63;;;;;;;;;;5076001;28;20127;-74
2023/02/08 01:11:06;;;;;;;29.15;11.77;;;;;;;;;;5073920;28;20157;-74
2023/02/08 01:13:33;;;;;;;25.35;12.02;;;;;;;;;;5062711;28;20124;-76
2023/02/08 01:16:09;;;;;;;27.02;11.98;;;;;;;;;;5054623;28;20132;-74
2023/02/08 01:18:36;;;;;;;29.20;11.88;;;;;;;;;;5055148;28;20083;-74
2023/02/08 01:21:10;;;;;;;24.67;11.60;;;;;;;;;;5056100;28;20500;-76
2023/02/08 01:23:37;;;;;;;25.23;11.77;;;;;;;;;;5054271;28;20053;-75
2023/02/08 01:26:07;;;;;;;27.52;11.93;;;;;;;;;;5055020;28;20526;-76
2023/02/08 01:28:34;;;;;;;21.92;11.15;;;;;;;;;;5053703;28;20040;-75
2023/02/08 01:31:05;;;;;;;27.90;11.75;;;;;;;;;;5053840;28;20049;-76
2023/02/08 01:33:32;;;;;;;31.73;12.93;;;;;;;;;;5054317;28;20136;-76
2023/02/08 01:35:59;;;;;;;28.75;12.35;;;;;;;;;;5055280;28;20083;-76
2023/02/08 01:38:25;;;;;;;27.42;10.93;;;;;;;;;;5053764;28;20041;-76
2023/02/08 01:40:52;;;;;;;21.08;10.85;;;;;;;;;;5054428;28;20094;-76
2023/02/08 01:43:25;;;;;;;27.83;11.38;;;;;;;;;;5055273;28;20053;-75
2023/02/08 01:45:52;;;;;;;24.73;11.68;;;;;;;;;;5054753;28;20048;-75
2023/02/08 01:48:23;;;;;;;25.48;11.68;;;;;;;;;;5056675;28;20052;-76
2023/02/08 01:50:54;;;;;;;26.95;11.52;;;;;;;;;;5062877;28;20113;-75
2023/02/08 01:53:21;;;;;;;26.60;12.75;;;;;;;;;;5062287;28;20498;-75
2023/02/08 01:55:51;;;;;;;24.42;12.45;;;;;;;;;;5062372;28;20544;-77
2023/02/08 01:58:19;;;;;;;32.10;12.95;;;;;;;;;;5064716;28;20087;-77
2023/02/08 02:00:48;;;;;;;26.42;12.43;;;;;;;;;;5065524;28;20041;-74
2023/02/08 02:03:15;;;;;;;27.48;11.95;;;;;;;;;;5061725;28;20140;-75
2023/02/08 02:05:47;;;;;;;29.92;12.32;;;;;;;;;;5073636;28;20485;-77
2023/02/08 02:08:14;;;;;;;29.08;12.77;;;;;;;;;;5084022;28;20044;-75
2023/02/08 02:10:42;;;;;;;28.02;12.98;;;;;;;;;;5072629;28;20086;-75
2023/02/08 02:13:12;;;;;;;29.58;12.40;;;;;;;;;;5058091;28;20048;-75
2023/02/08 02:15:38;;;;;;;32.42;13.00;;;;;;;;;;5057975;28;20087;-75
2023/02/08 02:18:08;;;;;;;28.30;13.75;;;;;;;;;;5056243;28;20051;-75
2023/02/08 02:20:51;;;;;;;25.58;11.95;;;;;;;;;;5056129;28;20079;-75
2023/02/08 02:23:46;;;;;;;25.90;12.23;;;;;;;;;;5057820;28;20487;-75
2023/02/08 02:26:33;;;;;;;30.08;13.13;;;;;;;;;;5057393;28;20389;-76
2023/02/08 02:29:27;;;;;;;29.23;13.40;;;;;;;;;;5056824;28;20045;-76
2023/02/08 02:32:03;;;;;;;26.02;11.93;;;;;;;;;;5056661;28;20472;-77
2023/02/08 02:34:38;;;;;;;30.08;13.82;;;;;;;;;;5054624;28;20128;-75
2023/02/08 02:37:14;;;;;;;26.98;11.93;;;;;;;;;;5055101;28;20045;-75
2023/02/08 02:39:46;;;;;;;27.65;13.15;;;;;;;;;;5055028;28;20053;-78
2023/02/08 02:45:15;;;;;;;27.63;11.73;;;;;;;;;;5033562;28;20067;-74
2023/02/08 02:47:49;;;;;;;33.72;14.07;;;;;;;;;;5052878;28;20044;-75
2023/02/08 02:50:23;;;;;;;33.28;13.32;;;;;;;;;;5052810;28;20052;-77
2023/02/08 02:52:56;;;;;;;24.80;11.90;;;;;;;;;;5052069;28;20049;-75
2023/02/08 02:55:25;;;;;;;27.23;12.07;;;;;;;;;;5052636;28;20055;-76
2023/02/08 02:57:54;;;;;;;30.58;13.63;;;;;;;;;;5052707;28;20048;-77
2023/02/08 03:00:23;;;;;;;31.05;12.60;;;;;;;;;;5055489;28;20080;-76
2023/02/08 03:02:54;;;;;;;33.85;13.68;;;;;;;;;;5051767;28;20051;-75
2023/02/08 03:05:21;;;;;;;29.52;12.82;;;;;;;;;;5057396;28;20119;-75
2023/02/08 03:08:07;;;;;;;32.20;14.00;;;;;;;;;;5056835;28;20487;-76
2023/02/08 03:10:49;;;;;;;27.42;13.20;;;;;;;;;;5052420;28;20051;-75
2023/02/08 03:13:25;;;;;;;32.33;13.10;;;;;;;;;;5051409;28;20084;-75
2023/02/08 03:16:01;;;;;;;25.83;12.77;;;;;;;;;;5054292;28;20045;-74
2023/02/08 03:18:39;;;;;;;29.95;13.30;;;;;;;;;;5069952;28;20123;-75
2023/02/08 03:21:11;;;;;;;31.15;13.38;;;;;;;;;;5070081;28;20109;-76
2023/02/08 03:23:44;;;;;;;28.33;13.18;;;;;;;;;;5067425;28;20041;-75
2023/02/08 03:26:17;;;;;;;30.45;13.00;;;;;;;;;;5053518;28;20057;-75
2023/02/08 03:28:55;;;;;;;31.77;13.23;;;;;;;;;;5052608;28;20132;-75
2023/02/08 03:31:28;;;;;;;27.17;13.02;;;;;;;;;;5052184;28;20049;-75
2023/02/08 03:34:02;;;;;;;29.05;14.27;;;;;;;;;;5051764;28;20083;-75
2023/02/08 03:36:32;;;;;;;27.17;12.80;;;;;;;;;;5051699;28;20053;-75
2023/02/08 03:39:01;;;;;;;31.33;11.97;;;;;;;;;;5051691;28;20088;-74
2023/02/08 03:41:31;;;;;;;30.73;12.52;;;;;;;;;;5051858;28;20045;-74
2023/02/08 03:44:02;;;;;;;31.52;13.25;;;;;;;;;;5051654;28;20075;-73
2023/02/08 03:46:32;;;;;;;30.55;12.95;;;;;;;;;;5051633;28;20539;-73
2023/02/08 03:49:04;;;;;;;34.08;14.13;;;;;;;;;;5051836;28;20045;-74
2023/02/08 03:51:34;;;;;;;31.83;13.60;;;;;;;;;;5051293;28;20543;-74
2023/02/08 03:54:04;;;;;;;29.00;14.73;;;;;;;;;;5051969;28;20056;-74
2023/02/08 03:56:38;;;;;;;34.10;15.15;;;;;;;;;;5051714;28;20048;-74
2023/02/08 03:59:11;;;;;;;34.83;14.75;;;;;;;;;;5054165;28;20069;-75
2023/02/08 04:01:43;;;;;;;28.88;13.35;;;;;;;;;;5051398;28;20124;-75
2023/02/08 04:04:13;;;;;;;28.73;12.90;;;;;;;;;;5052155;28;20173;-74
2023/02/08 04:06:40;;;;;;;31.50;14.07;;;;;;;;;;5068038;28;20052;-74
2023/02/08 04:09:07;;;;;;;29.77;13.98;;;;;;;;;;5071811;28;20415;-74
2023/02/08 04:11:34;;;;;;;29.65;13.98;;;;;;;;;;5071434;28;20131;-75
2023/02/08 04:14:00;;;;;;;30.33;12.88;;;;;;;;;;5056380;28;20057;-74
2023/02/08 04:16:27;;;;;;;31.23;13.77;;;;;;;;;;5051888;28;20053;-74
2023/02/08 04:18:54;;;;;;;30.83;13.40;;;;;;;;;;5051697;28;20156;-73
2023/02/08 04:21:21;;;;;;;39.08;16.17;;;;;;;;;;5051496;28;20080;-74
2023/02/08 04:23:48;;;;;;;32.40;14.07;;;;;;;;;;5051807;28;20139;-73
2023/02/08 04:26:15;;;;;;;29.05;13.32;;;;;;;;;;5055259;28;20041;-74
2023/02/08 04:28:41;;;;;;;30.20;13.68;;;;;;;;;;5055638;28;20045;-74
2023/02/08 04:31:08;;;;;;;37.17;14.75;;;;;;;;;;5055631;28;20041;-74
2023/02/08 04:33:35;;;;;;;30.45;13.55;;;;;;;;;;5054580;28;20467;-74
2023/02/08 04:36:01;;;;;;;25.75;13.02;;;;;;;;;;5055537;28;20049;-74
2023/02/08 04:38:29;;;;;;;27.50;13.45;;;;;;;;;;5054036;28;20049;-73
2023/02/08 04:40:56;;;;;;;36.30;15.48;;;;;;;;;;5054842;28;20415;-74
2023/02/08 04:43:23;;;;;;;28.17;12.63;;;;;;;;;;5054071;28;20132;-74
2023/02/08 04:45:50;;;;;;;30.77;13.27;;;;;;;;;;5054951;28;20056;-75
2023/02/08 04:48:17;;;;;;;29.73;12.93;;;;;;;;;;5054755;28;20049;-74
2023/02/08 04:50:43;;;;;;;31.95;15.30;;;;;;;;;;5054991;28;20049;-74
2023/02/08 04:53:10;;;;;;;35.45;14.18;;;;;;;;;;5054597;28;20135;-75
2023/02/08 04:55:38;;;;;;;35.85;14.40;;;;;;;;;;5069476;23;20056;-77
2023/02/08 04:58:05;;;;;;;35.88;14.90;;;;;;;;;;5054236;28;20055;-75
2023/02/08 05:00:32;;;;;;;30.95;14.10;;;;;;;;;;5054180;28;20077;-78
2023/02/08 05:02:59;;;;;;;35.25;14.48;;;;;;;;;;5053866;28;20075;-77
2023/02/08 05:05:27;;;;;;;34.33;13.60;;;;;;;;;;5054132;28;20045;-77
2023/02/08 05:07:54;;;;;;;31.33;14.45;;;;;;;;;;5054853;28;20060;-77
2023/02/08 05:10:20;;;;;;;30.42;13.30;;;;;;;;;;5053575;28;20075;-77
2023/02/08 05:12:48;;;;;;;31.90;14.18;;;;;;;;;;5054036;28;20049;-77
2023/02/08 05:15:15;;;;;;;30.92;13.10;;;;;;;;;;5041757;28;20115;-78
2023/02/08 05:17:42;;;;;;;33.50;13.85;;;;;;;;;;5054703;28;20084;-78
2023/02/08 05:20:11;;;;;;;34.78;14.25;;;;;;;;;;5056050;28;20507;-77
2023/02/08 05:22:38;;;;;;;30.67;13.50;;;;;;;;;;5055866;28;20128;-77
2023/02/08 05:25:05;;;;;;;27.85;13.23;;;;;;;;;;5053945;28;20955;-78
2023/02/08 05:27:34;;;;;;;33.20;13.95;;;;;;;;;;5054686;28;20056;-78
2023/02/08 05:30:03;;;;;;;27.08;12.88;;;;;;;;;;5054933;28;20041;-79
2023/02/08 05:32:29;;;;;;;29.80;13.60;;;;;;;;;;5053732;28;20049;-77
2023/02/08 05:34:56;;;;;;;29.73;14.07;;;;;;;;;;5053715;28;20080;-76
2023/02/08 05:37:22;;;;;;;38.00;14.60;;;;;;;;;;5053969;28;20041;-76
2023/02/08 05:39:49;;;;;;;37.20;15.60;;;;;;;;;;5053707;28;20053;-77
2023/02/08 05:42:16;;;;;;;30.08;13.63;;;;;;;;;;5053224;28;20474;-77
2023/02/08 05:44:42;;;;;;;34.60;14.85;;;;;;;;;;5053536;28;20136;-78
2023/02/08 05:47:10;;;;;;;31.30;15.35;;;;;;;;;;5053468;28;20045;-77
2023/02/08 05:49:37;;;;;;;31.15;15.25;;;;;;;;;;5053498;28;20140;-77
2023/02/08 05:52:04;;;;;;;37.03;17.45;;;;;;;;;;5053346;28;20045;-76
2023/02/08 05:54:31;;;;;;;35.78;15.68;;;;;;;;;;5053359;28;20147;-78
2023/02/08 05:56:57;;;;;;;30.90;14.25;;;;;;;;;;5053437;28;20136;-76
2023/02/08 05:59:24;;;;;;;34.13;15.57;;;;;;;;;;5053253;28;20070;-77
2023/02/08 06:01:51;;;;;;;33.25;15.90;;;;;;;;;;5053432;28;20048;-76
2023/02/08 06:04:19;;;;;;;33.80;16.58;;;;;;;;;;5053766;28;20471;-77
2023/02/08 06:06:45;;;;;;;37.42;17.17;;;;;;;;;;5060661;28;20051;-78
2023/02/08 06:09:12;;;;;;;38.17;17.00;;;;;;;;;;5059315;28;20088;-79
2023/02/08 06:11:38;;;;;;;34.72;15.93;;;;;;;;;;5053601;28;20463;-77
2023/02/08 06:14:05;;;;;;;32.28;15.88;;;;;;;;;;5053749;28;20073;-78
2023/02/08 06:16:32;;;;;;;37.13;16.65;;;;;;;;;;5053562;28;20048;-77
2023/02/08 06:18:59;;;;;;;36.10;15.93;;;;;;;;;;5053511;28;20120;-78
2023/02/08 06:21:27;;;;;;;41.80;16.38;;;;;;;;;;5054354;28;20052;-78
2023/02/08 06:23:56;;;;;;;39.45;16.88;;;;;;;;;;5052715;28;20106;-76
2023/02/08 06:26:23;;;;;;;38.47;15.57;;;;;;;;;;5051779;28;20124;-77
2023/02/08 06:28:51;;;;;;;38.72;15.77;;;;;;;;;;5036659;28;20077;-81
2023/02/08 06:31:17;;;;;;;37.70;15.18;;;;;;;;;;5037773;28;20088;-81
2023/02/08 06:33:44;;;;;;;36.63;15.25;;;;;;;;;;5035803;28;20471;-78
2023/02/08 06:36:11;;;;;;;37.42;16.25;;;;;;;;;;5044228;28;20091;-79
2023/02/08 06:38:39;;;;;;;38.45;15.73;;;;;;;;;;5057741;28;20316;-79
2023/02/08 06:41:06;;;;;;;34.58;15.52;;;;;;;;;;5057310;28;20044;-78
2023/02/08 06:43:32;;;;;;;35.85;15.00;;;;;;;;;;5066065;28;20093;-77
2023/02/08 06:45:59;;;;;;;37.35;15.23;;;;;;;;;;5072058;28;20102;-77
2023/02/08 06:48:25;;;;;;;38.85;15.88;;;;;;;;;;5069561;28;20056;-78
2023/02/08 06:50:54;;;;;;;34.83;15.90;;;;;;;;;;5066333;28;20505;-77
2023/02/08 06:53:21;;;;;;;29.00;15.52;;;;;;;;;;5064429;28;20052;-78
2023/02/08 06:55:50;;;;;;;39.25;15.55;;;;;;;;;;5064422;28;20052;-79
2023/02/08 06:58:17;;;;;;;35.83;15.00;;;;;;;;;;5068355;28;20076;-79
2023/02/08 07:00:45;;;;;;;35.22;16.40;;;;;;;;;;5063554;28;20095;-78
2023/02/08 07:03:12;;;;;;;34.50;16.48;;;;;;;;;;5049741;28;20072;-80
2023/02/08 07:05:39;;;;;;;35.00;16.10;;;;;;;;;;5055650;28;20041;-80
2023/02/08 07:08:07;;;;;;;39.88;15.98;;;;;;;;;;5068269;28;20045;-80
2023/02/08 07:10:34;;;;;;;30.08;17.20;;;;;;;;;;5070742;28;20056;-78
2023/02/08 07:13:03;;;;;;;36.58;17.50;;;;;;;;;;5067654;28;20079;-78
2023/02/08 07:15:30;;;;;;;37.10;15.40;;;;;;;;;;5066899;28;20409;-79
2023/02/08 07:17:57;;;;;;;32.83;15.52;;;;;;;;;;5060283;28;20065;-78
2023/02/08 07:20:24;;;;;;;40.17;16.20;;;;;;;;;;5059708;28;20098;-81
2023/02/08 07:22:50;;;;;;;40.38;17.30;;;;;;;;;;5066388;28;20045;-80
2023/02/08 07:25:17;;;;;;;43.10;16.70;;;;;;;;;;5061971;28;20045;-81
2023/02/08 07:27:44;;;;;;;41.67;17.98;;;;;;;;;;5056273;28;20131;-80
2023/02/08 07:30:13;;;;;;;36.33;17.27;;;;;;;;;;5056616;28;20072;-78
2023/02/08 07:32:39;;;;;;;39.53;16.83;;;;;;;;;;5056224;28;20045;-79
2023/02/08 07:35:07;;;;;;;36.80;16.52;;;;;;;;;;5057508;28;20123;-80
2023/02/08 07:37:34;;;;;;;34.53;16.48;;;;;;;;;;5058741;28;20132;-80
2023/02/08 07:40:00;;;;;;;37.53;17.00;;;;;;;;;;5057257;28;20072;-80
2023/02/08 07:42:27;;;;;;;40.67;15.98;;;;;;;;;;5053860;28;20049;-80
2023/02/08 07:44:56;;;;;;;36.72;16.85;;;;;;;;;;5058703;28;20202;-78
2023/02/08 07:47:24;;;;;;;39.85;17.75;;;;;;;;;;5057504;28;20049;-79
2023/02/08 07:49:51;;;;;;;40.25;17.20;;;;;;;;;;5058187;28;20132;-80
2023/02/08 07:52:18;;;;;;;37.33;17.00;;;;;;;;;;5039322;28;20052;-78
2023/02/08 07:54:44;;;;;;;40.55;17.25;;;;;;;;;;5039250;28;20049;-79
2023/02/08 07:57:11;;;;;;;35.95;16.15;;;;;;;;;;5050388;28;20049;-80
2023/02/08 07:59:38;;;;;;;36.85;16.27;;;;;;;;;;5036273;28;20120;-79
2023/02/08 08:02:05;;;;;;;37.10;15.80;;;;;;;;;;5038994;28;20128;-79
2023/02/08 08:04:33;;;;;;;37.85;17.05;;;;;;;;;;5040785;28;20054;-80
2023/02/08 08:07:00;;;;;;;38.75;17.05;;;;;;;;;;5058921;28;20157;-80
2023/02/08 08:09:28;;;;;;;32.83;16.63;;;;;;;;;;5062132;28;20056;-77
2023/02/08 08:11:55;;;;;;;37.40;17.00;;;;;;;;;;5062122;28;20068;-81
2023/02/08 08:14:22;;;;;;;36.95;16.42;;;;;;;;;;5052666;28;20140;-76
2023/02/08 08:16:49;;;;;;;41.97;17.48;;;;;;;;;;5052514;28;20052;-78
2023/02/08 08:19:15;;;;;;;44.20;16.60;;;;;;;;;;5060078;28;20500;-78
2023/02/08 08:21:43;;;;;;;38.70;16.92;;;;;;;;;;5042771;28;20406;-80
2023/02/08 08:24:10;;;;;;;34.42;15.88;;;;;;;;;;5043879;28;20128;-79
2023/02/08 08:26:37;;;;;;;42.10;17.27;;;;;;;;;;5056595;28;20049;-81
2023/02/08 08:29:03;;;;;;;38.53;15.82;;;;;;;;;;5055966;28;20487;-77
2023/02/08 08:31:30;;;;;;;38.58;16.45;;;;;;;;;;5054986;28;20047;-78
2023/02/08 08:33:57;;;;;;;35.60;15.20;;;;;;;;;;5057939;28;20049;-76
2023/02/08 08:36:23;;;;;;;44.58;16.08;;;;;;;;;;5058807;28;20514;-78
2023/02/08 08:38:52;;;;;;;37.60;15.75;;;;;;;;;;5059455;28;20128;-77
2023/02/08 08:41:27;;;;;;;33.92;16.33;;;;;;;;;;5049675;28;20068;-76
2023/02/08 08:43:53;;;;;;;32.55;15.57;;;;;;;;;;5044359;28;20041;-75
2023/02/08 08:46:20;;;;;;;38.88;17.35;;;;;;;;;;5055336;28;20045;-78
2023/02/08 08:48:47;;;;;;;34.00;15.55;;;;;;;;;;5056044;28;20091;-78
2023/02/08 08:51:14;;;;;;;36.60;16.00;;;;;;;;;;5051643;28;20072;-77
2023/02/08 08:53:41;;;;;;;38.42;16.92;;;;;;;;;;5054629;28;20115;-78
2023/02/08 08:56:09;;;;;;;38.40;17.98;;;;;;;;;;5055450;28;20072;-78
2023/02/08 08:58:39;;;;;;;38.13;15.80;;;;;;;;;;5057452;28;20104;-78
2023/02/08 09:01:08;;;;;;;40.13;16.52;;;;;;;;;;5051632;28;20045;-77
2023/02/08 09:03:35;;;;;;;35.67;16.25;;;;;;;;;;5036992;28;20041;-77
2023/02/08 09:06:01;;;;;;;34.55;15.38;;;;;;;;;;5034094;28;21008;-78
2023/02/08 09:08:28;;;;;;;38.88;17.23;;;;;;;;;;5031971;28;20052;-76
2023/02/08 09:10:55;;;;;;;44.22;16.80;;;;;;;;;;5031666;28;20124;-79
2023/02/08 09:13:23;;;;;;;35.05;15.75;;;;;;;;;;5051484;28;20049;-77
2023/02/08 09:15:50;;;;;;;40.78;16.23;;;;;;;;;;5052091;28;20148;-77
2023/02/08 09:18:16;;;;;;;32.38;15.32;;;;;;;;;;5043760;28;20073;-76
2023/02/08 09:20:43;;;;;;;40.35;16.67;;;;;;;;;;5032917;28;20077;-79
2023/02/08 09:23:10;;;;;;;42.28;14.57;;;;;;;;;;5034608;28;20045;-78
2023/02/08 09:25:37;;;;;;;35.17;15.52;;;;;;;;;;5039922;28;20072;-78
2023/02/08 09:28:04;;;;;;;37.85;17.92;;;;;;;;;;5053478;28;20068;-77
2023/02/08 09:30:33;;;;;;;34.53;15.15;;;;;;;;;;5051364;28;20124;-77
2023/02/08 09:32:59;;;;;;;43.97;16.40;;;;;;;;;;5052429;28;20065;-78
2023/02/08 09:35:26;;;;;;;37.53;14.88;;;;;;;;;;5053621;28;20049;-78
2023/02/08 09:37:56;;;;;;;31.95;14.75;;;;;;;;;;5055509;28;20045;-78
2023/02/08 09:40:26;;;;;;;40.85;14.93;;;;;;;;;;5051537;28;20045;-77
2023/02/08 09:43:04;;;;;;;39.00;16.50;;;;;;;;;;5048821;28;20124;-78
2023/02/08 09:45:47;;;;;;;40.33;15.15;;;;;;;;;;5052743;28;20041;-78
2023/02/08 09:48:20;;;;;;;37.92;16.10;;;;;;;;;;5050126;28;20055;-78
2023/02/08 09:50:50;;;;;;;37.08;15.57;;;;;;;;;;5032159;28;20132;-78
2023/02/08 09:53:21;;;;;;;34.85;16.23;;;;;;;;;;5031616;28;20080;-78
2023/02/08 09:55:49;;;;;;;;;;;;;;;;;;5043845;28;20556;-78
2023/02/08 09:58:24;;;;;;;32.03;14.85;;;;;;;;;;5048947;28;20394;-78
2023/02/08 10:00:54;;;;;;;32.65;15.00;;;;;;;;;;5031926;28;20061;-79
2023/02/08 10:03:40;;;;;;;44.85;17.65;;;;;;;;;;5031134;28;20550;-77
2023/02/08 10:06:09;;;;;;;34.88;16.42;;;;;;;;;;5042655;28;20103;-77
2023/02/08 10:08:37;;;;;;;34.65;15.65;;;;;;;;;;5050948;28;20041;-78
2023/02/08 10:11:20;;;;;;;34.15;16.27;;;;;;;;;;5051222;28;20128;-76
2023/02/08 10:14:12;;;;;;;37.38;15.85;;;;;;;;;;5040190;28;20472;-76
2023/02/08 10:16:52;;;;;;;38.20;18.70;;;;;;;;;;5042911;28;20052;-77
2023/02/08 10:19:29;;;;;;;37.63;15.85;;;;;;;;;;5051573;28;20045;-75
2023/02/08 10:22:06;;;;;;;34.55;16.15;;;;;;;;;;5050394;28;20495;-75
2023/02/08 10:24:51;;;;;;;45.53;18.20;;;;;;;;;;5050968;28;20565;-76
2023/02/08 10:27:24;;;;;;;36.97;16.98;;;;;;;;;;5050194;28;20079;-78
2023/02/08 10:30:15;;;;;;;38.10;16.90;;;;;;;;;;5051381;28;20045;-77
2023/02/08 10:33:00;;;;;;;38.88;17.80;;;;;;;;;;5051862;28;20047;-76
2023/02/08 10:35:36;;;;;;;37.20;15.23;;;;;;;;;;5058394;28;20060;-77
2023/02/08 10:38:24;;;;;;;40.45;16.23;;;;;;;;;;5051658;28;20127;-78
2023/02/08 10:40:55;;;;;;;36.45;16.35;;;;;;;;;;5050997;28;20055;-76
2023/02/08 10:43:31;;;;;;;36.92;16.05;;;;;;;;;;5050008;28;20067;-76
2023/02/08 10:46:04;;;;;;;38.33;17.00;;;;;;;;;;5044759;28;20044;-77
2023/02/08 10:48:42;;;;;;;31.45;14.75;;;;;;;;;;5050606;28;20510;-77
2023/02/08 10:51:12;;;;;;;35.05;15.15;;;;;;;;;;5049890;28;20048;-78
2023/02/08 10:53:57;;;;;;;38.17;17.85;;;;;;;;;;5049656;28;20083;-77
2023/02/08 10:56:46;;;;;;;39.20;16.35;;;;;;;;;;5049414;28;20102;-76
2023/02/08 10:59:19;;;;;;;40.58;17.17;;;;;;;;;;5050508;28;20580;-78
2023/02/08 11:01:47;;;;;;;37.67;17.95;;;;;;;;;;5032165;28;20073;-76
2023/02/08 11:04:19;;;;;;;32.80;15.85;;;;;;;;;;5044393;28;20225;-77
2023/02/08 11:06:48;;;;;;;38.42;16.48;;;;;;;;;;5031154;28;20049;-77
2023/02/08 11:09:25;;;;;;;35.38;16.08;;;;;;;;;;5044218;28;20638;-76
2023/02/08 11:12:23;;;;;;;42.50;16.30;;;;;;;;;;5053860;28;20065;-79
2023/02/08 11:14:52;;;;;;;38.05;16.42;;;;;;;;;;5046441;28;20047;-77
2023/02/08 11:17:29;;;;;;;39.58;17.58;;;;;;;;;;5033370;28;20045;-78
2023/02/08 11:20:00;;;;;;;35.92;17.05;;;;;;;;;;5034961;28;20466;-76
2023/02/08 11:22:33;;;;;;;40.00;16.98;;;;;;;;;;5049239;28;20045;-77
2023/02/08 11:25:05;;;;;;;40.38;15.68;;;;;;;;;;5042418;28;20045;-77
2023/02/08 11:27:36;;;;;;;37.40;16.35;;;;;;;;;;5049976;28;20123;-77
2023/02/08 11:30:22;;;;;;;38.33;16.25;;;;;;;;;;5051542;28;20045;-76
2023/02/08 11:33:27;;;;;;;37.80;15.90;;;;;;;;;;5046174;28;20511;-77
2023/02/08 11:36:04;;;;;;;35.70;15.80;;;;;;;;;;5051504;28;20069;-77
2023/02/08 11:38:36;;;;;;;40.50;17.73;;;;;;;;;;5062602;28;20065;-78
2023/02/08 11:41:19;;;;;;;38.65;17.33;;;;;;;;;;5062868;28;20471;-76
2023/02/08 11:44:00;;;;;;;36.83;17.17;;;;;;;;;;5063998;28;20084;-77
2023/02/08 11:46:28;;;;;;;;;;;;;;;;;;5061734;28;20461;-77
2023/02/08 11:51:30;;;;;;;36.92;17.25;;;;;;;;;;5094472;28;20047;-79
2023/02/08 11:53:57;;;;;;;37.35;16.92;;;;;;;;;;5114846;28;20532;-79
2023/02/08 11:56:38;;;;;;;38.75;17.70;;;;;;;;;;5114046;28;20040;-79
2023/02/08 11:59:18;;;;;;;43.55;18.08;;;;;;;;;;5113542;28;20048;-76
2023/02/08 12:01:45;;;;;;;44.35;20.45;;;;;;;;;;5114438;28;20126;-78
2023/02/08 12:04:14;;;;;;;39.95;17.90;;;;;;;;;;5114280;28;20078;-78
2023/02/08 12:07:18;;;;;;;41.65;18.33;;;;;;;;;;5100244;28;20083;-78
2023/02/08 12:10:08;;;;;;;42.63;19.38;;;;;;;;;;5093813;28;20486;-78
2023/02/08 12:12:48;;;;;;;43.88;19.55;;;;;;;;;;5093809;28;20048;-77
2023/02/08 12:15:24;;;;;;;41.50;17.17;;;;;;;;;;5093507;28;20072;-78
2023/02/08 12:18:06;;;;;;;38.72;18.60;;;;;;;;;;5075108;28;20535;-79
2023/02/08 12:20:39;;;;;;;39.72;18.70;;;;;;;;;;5078729;28;20426;-78
2023/02/08 12:23:42;;;;;;;43.28;18.55;;;;;;;;;;5095491;28;20098;-80
2023/02/08 12:26:17;;;;;;;40.30;17.67;;;;;;;;;;5090870;28;20576;-79
2023/02/08 12:28:58;;;;;;;36.75;18.00;;;;;;;;;;5072602;28;20051;-77
2023/02/08 12:31:40;;;;;;;44.10;18.73;;;;;;;;;;5077821;28;20044;-76
2023/02/08 12:34:13;;;;;;;36.83;18.35;;;;;;;;;;5092871;28;20421;-79
2023/02/08 12:43:00;;;;;;;37.63;17.77;;;;;;;;;;5110127;28;20075;-82
2023/02/08 12:45:53;;;;;;;34.88;17.67;;;;;;;;;;5094294;28;20143;-77
2023/02/08 12:48:36;;;;;;;41.85;18.52;;;;;;;;;;5091703;28;20044;-77
2023/02/08 12:51:11;;;;;;;39.20;17.00;;;;;;;;;;5077479;28;20135;-77
2023/02/08 12:53:42;;;;;;;43.05;21.40;;;;;;;;;;5099351;28;20046;-77
2023/02/08 12:56:16;;;;;;;38.17;18.50;;;;;;;;;;5104737;28;20051;-77
2023/02/08 12:58:45;;;;;;;39.22;17.23;;;;;;;;;;5079867;28;20049;-77
2023/02/08 13:01:17;;;;;;;37.28;17.88;;;;;;;;;;5073859;28;20131;-79
2023/02/08 13:03:49;;;;;;;38.63;18.55;;;;;;;;;;5088046;28;20479;-80
2023/02/08 13:06:18;;;;;;;35.35;16.27;;;;;;;;;;5094016;28;20576;-77
2023/02/08 13:08:50;;;;;;;39.72;18.38;;;;;;;;;;5081938;28;20040;-78
2023/02/08 13:11:27;;;;;;;39.08;17.95;;;;;;;;;;5072757;28;20053;-78
2023/02/08 13:14:00;;;;;;;37.53;17.50;;;;;;;;;;5085588;28;20048;-77
2023/02/08 13:16:33;;;;;;;36.78;16.15;;;;;;;;;;5104353;28;20047;-77
2023/02/08 13:19:18;;;;;;;39.22;18.17;;;;;;;;;;5084838;28;20132;-77
2023/02/08 13:21:46;;;;;;;37.45;16.60;;;;;;;;;;5090830;28;20044;-77
2023/02/08 13:24:22;;;;;;;36.10;17.73;;;;;;;;;;5087718;28;20051;-78
2023/02/08 13:26:51;;;;;;;35.20;17.58;;;;;;;;;;5099574;28;20483;-78
2023/02/08 13:29:19;;;;;;;37.88;18.88;;;;;;;;;;5100511;28;20153;-77
2023/02/08 13:31:51;;;;;;;30.20;16.15;;;;;;;;;;5098048;28;20422;-78
2023/02/08 13:34:25;;;;;;;32.13;15.85;;;;;;;;;;5094229;28;20122;-78
2023/02/08 13:36:54;;;;;;;34.72;16.27;;;;;;;;;;5099227;28;20129;-78
2023/02/08 13:39:33;;;;;;;37.40;16.20;;;;;;;;;;5097915;28;20051;-78
2023/02/08 13:42:04;;;;;;;33.78;17.63;;;;;;;;;;5097244;28;20458;-78
2023/02/08 13:44:33;;;;;;;36.20;16.95;;;;;;;;;;5098893;28;20071;-77
2023/02/08 13:47:00;;;;;;;34.40;17.35;;;;;;;;;;5099181;28;20047;-78
2023/02/08 13:49:51;;;;;;;36.88;16.17;;;;;;;;;;5088015;28;20122;-76
2023/02/08 13:53:03;;;;;;;34.92;16.67;;;;;;;;;;5111681;28;20048;-77
2023/02/08 13:55:53;;;;;;;29.63;15.02;;;;;;;;;;5071181;28;20084;-77
2023/02/08 13:58:34;;;;;;;32.42;15.77;;;;;;;;;;5071660;28;20127;-78
2023/02/08 14:01:08;;;;;;;34.10;15.95;;;;;;;;;;5070742;28;20124;-78
2023/02/08 14:03:35;;;;;;;42.45;16.85;;;;;;;;;;5099124;28;20070;-78
2023/02/08 14:06:06;;;;;;;31.63;15.55;;;;;;;;;;5099599;28;20050;-78
2023/02/08 14:08:41;;;;;;;33.22;16.00;;;;;;;;;;5091469;28;20048;-78
2023/02/08 14:11:14;;;;;;;32.00;15.88;;;;;;;;;;5090767;28;20048;-78
2023/02/08 14:13:48;;;;;;;31.05;14.98;;;;;;;;;;5094151;28;20044;-79
2023/02/08 14:16:28;;;;;;;32.10;15.57;;;;;;;;;;5091292;28;20050;-78
2023/02/08 14:18:58;;;;;;;38.93;16.70;;;;;;;;;;5098515;28;20054;-77
2023/02/08 14:21:33;;;;;;;31.00;14.27;;;;;;;;;;5091952;28;20048;-78
2023/02/08 14:24:03;;;;;;;35.25;15.27;;;;;;;;;;5103408;28;20146;-79
2023/02/08 14:26:30;;;;;;;34.10;14.50;;;;;;;;;;5107855;28;20064;-77
2023/02/08 14:29:01;;;;;;;29.27;13.85;;;;;;;;;;5072777;28;20094;-77
2023/02/08 14:31:39;;;;;;;31.20;13.60;;;;;;;;;;5073997;28;20040;-77
2023/02/08 14:34:16;;;;;;;33.00;13.98;;;;;;;;;;5104099;28;20046;-77
2023/02/08 14:36:43;;;;;;;33.25;14.48;;;;;;;;;;5107661;28;20126;-77
2023/02/08 14:39:25;;;;;;;35.13;14.73;;;;;;;;;;5070378;28;20062;-78
2023/02/08 14:41:59;;;;;;;26.52;13.52;;;;;;;;;;5080225;28;20500;-77
2023/02/08 14:45:00;;;;;;;29.55;13.23;;;;;;;;;;5097625;28;20040;-78
2023/02/08 14:47:53;;;;;;;27.52;13.25;;;;;;;;;;5085894;28;20495;-77
2023/02/08 14:50:24;;;;;;;28.13;13.15;;;;;;;;;;5084553;28;20071;-77
2023/02/08 14:52:58;;;;;;;35.25;15.13;;;;;;;;;;5070440;28;20439;-77
2023/02/08 14:55:29;;;;;;;25.48;12.15;;;;;;;;;;5070291;28;20048;-77